Time;durP1;ratioP1;P1;durP2;ratioP2;P2;SDS_P1;SDS_P2;PMS_P1;PMS_P2;Temp;Humidity;BMP_temperature;BMP_pressure;BME280_temperature;BME280_humidity;BME280_pressure;Samples;Min_cycle;Max_cycle;Signal;HPM_P1;HPM_P2
2021/12/06 00:01:09;;;;;;;56.73;51.60;;;4.30;99.90;;;;;;4380017;32;20160;-65
2021/12/06 00:03:39;;;;;;;57.33;51.90;;;4.30;99.90;;;;;;4389924;32;20229;-63
2021/12/06 00:06:06;;;;;;;58.03;52.63;;;4.20;99.90;;;;;;4391941;32;20194;-64
2021/12/06 00:08:33;;;;;;;55.70;50.30;;;4.20;99.90;;;;;;4389391;32;20527;-64
2021/12/06 00:11:06;;;;;;;60.07;54.23;;;4.10;99.90;;;;;;4390185;32;20216;-64
2021/12/06 00:13:36;;;;;;;58.67;53.27;;;4.10;99.90;;;;;;4390860;32;20227;-64
2021/12/06 00:16:06;;;;;;;63.17;57.47;;;4.10;99.90;;;;;;4390565;32;20269;-63
2021/12/06 00:18:33;;;;;;;59.67;53.97;;;4.10;99.90;;;;;;4390183;32;20159;-63
2021/12/06 00:21:00;;;;;;;57.17;51.77;;;4.00;99.90;;;;;;4381261;32;20215;-64
2021/12/06 00:23:28;;;;;;;60.13;54.73;;;4.00;99.90;;;;;;4383520;32;20161;-63
2021/12/06 00:25:55;;;;;;;60.13;54.63;;;4.00;99.90;;;;;;4386962;32;20285;-65
2021/12/06 00:28:22;;;;;;;58.87;53.10;;;4.00;99.90;;;;;;4389275;32;20160;-63
2021/12/06 00:30:50;;;;;;;59.20;53.27;;;4.10;99.90;;;;;;4380665;32;20222;-63
2021/12/06 00:33:17;;;;;;;55.83;50.53;;;4.00;99.90;;;;;;4384763;32;20638;-64
2021/12/06 00:35:43;;;;;;;59.53;53.90;;;4.10;99.90;;;;;;4376691;32;20176;-65
2021/12/06 00:38:10;;;;;;;56.77;51.43;;;4.20;99.90;;;;;;4387995;32;20177;-64
2021/12/06 00:40:39;;;;;;;57.17;51.90;;;4.10;99.90;;;;;;4378058;32;20271;-63
2021/12/06 00:43:07;;;;;;;64.43;58.73;;;4.20;99.90;;;;;;4387972;32;20195;-65
2021/12/06 00:45:35;;;;;;;57.27;51.97;;;4.20;99.90;;;;;;4391245;32;20212;-64
2021/12/06 00:48:03;;;;;;;59.90;54.50;;;4.20;99.90;;;;;;4391591;32;20208;-63
2021/12/06 00:50:33;;;;;;;62.77;57.20;;;4.20;99.90;;;;;;4391442;32;20191;-64
2021/12/06 00:53:00;;;;;;;59.37;53.70;;;4.30;99.90;;;;;;4389541;32;20600;-64
2021/12/06 00:55:27;;;;;;;57.63;52.07;;;4.30;99.90;;;;;;4390175;32;20176;-63
2021/12/06 00:57:54;;;;;;;56.67;50.97;;;4.30;99.90;;;;;;4382523;32;20228;-63
2021/12/06 01:00:25;;;;;;;58.60;53.17;;;4.30;99.90;;;;;;4391135;32;20217;-63
2021/12/06 01:02:52;;;;;;;59.20;53.53;;;4.30;99.90;;;;;;4393851;32;20153;-64
2021/12/06 01:05:23;;;;;;;58.80;53.27;;;4.40;99.90;;;;;;4392643;32;20220;-63
2021/12/06 01:07:50;;;;;;;59.47;53.60;;;4.30;99.90;;;;;;4387128;32;20191;-63
2021/12/06 01:10:18;;;;;;;66.77;60.77;;;4.40;99.90;;;;;;4390582;32;20160;-63
2021/12/06 01:12:45;;;;;;;62.33;56.90;;;4.50;99.90;;;;;;4380428;32;20176;-63
2021/12/06 01:15:12;;;;;;;59.83;54.23;;;4.50;99.90;;;;;;4392379;32;20212;-64
2021/12/06 01:17:39;;;;;;;67.10;60.67;;;4.50;99.90;;;;;;4392549;32;20580;-64
2021/12/06 01:20:10;;;;;;;60.60;54.87;;;4.50;99.90;;;;;;4392270;32;20199;-63
2021/12/06 01:22:44;;;;;;;61.80;55.37;;;4.60;99.90;;;;;;4393224;32;20708;-63
2021/12/06 01:25:24;;;;;;;59.70;53.20;;;4.60;99.90;;;;;;4388581;32;20156;-62
2021/12/06 01:28:17;;;;;;;56.83;51.37;;;4.70;99.90;;;;;;4387739;32;20160;-65
2021/12/06 01:30:57;;;;;;;65.57;59.27;;;4.60;99.90;;;;;;4381453;32;20460;-64
2021/12/06 01:39:12;;;;;;;62.50;56.40;;;4.60;99.90;;;;;;4293518;33;20166;-63
2021/12/06 01:41:43;;;;;;;65.70;59.10;;;4.60;99.90;;;;;;4301639;33;20180;-63
2021/12/06 01:44:13;;;;;;;61.57;55.17;;;4.60;99.90;;;;;;4301705;33;20548;-64
2021/12/06 01:46:43;;;;;;;60.43;54.07;;;4.60;99.90;;;;;;4302774;33;20213;-63
2021/12/06 01:49:10;;;;;;;62.13;54.60;;;4.60;99.90;;;;;;4302103;33;20550;-64
2021/12/06 01:51:38;;;;;;;63.07;56.43;;;4.50;99.90;;;;;;4308759;33;20225;-64
2021/12/06 01:54:06;;;;;;;60.90;54.53;;;4.60;99.90;;;;;;4304580;33;20245;-64
2021/12/06 01:56:35;;;;;;;59.87;53.87;;;4.60;99.90;;;;;;4302160;33;20551;-64
2021/12/06 01:59:02;;;;;;;61.63;55.07;;;4.70;99.90;;;;;;4301183;33;20166;-64
2021/12/06 02:01:29;;;;;;;61.23;54.30;;;4.60;99.90;;;;;;4301234;33;20166;-63
2021/12/06 02:03:56;;;;;;;62.90;55.90;;;4.70;99.90;;;;;;4296456;33;20671;-64
2021/12/06 02:06:23;;;;;;;60.77;53.60;;;4.70;99.90;;;;;;4300570;33;20182;-62
2021/12/06 02:08:50;;;;;;;59.37;52.87;;;4.70;99.90;;;;;;4302046;33;20209;-63
2021/12/06 02:11:17;;;;;;;67.03;59.23;;;4.80;99.90;;;;;;4353140;33;20503;-64
2021/12/06 02:13:51;;;;;;;65.83;59.30;;;4.80;99.90;;;;;;4367847;32;20488;-63
2021/12/06 02:16:22;;;;;;;60.70;54.53;;;4.80;99.90;;;;;;4390119;32;20212;-63
2021/12/06 02:18:54;;;;;;;59.20;52.10;;;4.70;99.90;;;;;;4381428;32;20174;-64
2021/12/06 02:21:28;;;;;;;58.07;52.03;;;4.80;99.90;;;;;;4386016;32;20164;-62
2021/12/06 02:23:56;;;;;;;57.93;51.83;;;4.80;99.90;;;;;;4385759;32;20201;-65
2021/12/06 02:26:24;;;;;;;56.97;50.90;;;4.80;99.90;;;;;;4391473;32;20160;-62
2021/12/06 02:28:51;;;;;;;55.50;49.63;;;4.80;99.90;;;;;;4388027;32;20170;-63
2021/12/06 02:31:19;;;;;;;62.70;55.93;;;4.80;99.90;;;;;;4382800;32;20211;-64
2021/12/06 02:33:48;;;;;;;66.70;59.93;;;4.80;99.90;;;;;;4391757;32;20262;-62
2021/12/06 02:36:15;;;;;;;61.93;55.40;;;4.80;99.90;;;;;;4391284;32;20156;-64
2021/12/06 02:38:44;;;;;;;64.50;57.97;;;4.80;99.90;;;;;;4378851;32;20186;-63
2021/12/06 02:41:11;;;;;;;62.07;55.33;;;4.80;99.90;;;;;;4391136;32;20211;-64
2021/12/06 02:43:39;;;;;;;62.67;55.77;;;4.90;99.90;;;;;;4390108;32;20188;-63
2021/12/06 02:46:06;;;;;;;68.70;61.47;;;4.90;99.90;;;;;;4381699;32;20255;-63
2021/12/06 02:48:33;;;;;;;58.60;51.10;;;4.90;99.90;;;;;;4389130;32;20553;-64
2021/12/06 02:51:04;;;;;;;57.10;50.13;;;4.90;99.90;;;;;;4381306;32;20644;-64
2021/12/06 02:53:33;;;;;;;61.50;52.73;;;4.80;99.90;;;;;;4391345;32;20659;-63
2021/12/06 02:56:05;;;;;;;66.03;59.07;;;4.70;99.90;;;;;;4391561;32;20647;-64
2021/12/06 02:58:56;;;;;;;67.97;60.63;;;4.70;99.90;;;;;;4388627;32;20156;-63
2021/12/06 03:01:28;;;;;;;65.93;58.80;;;4.60;99.90;;;;;;4391516;32;20156;-64
2021/12/06 03:03:55;;;;;;;71.97;64.13;;;4.70;99.90;;;;;;4380956;32;20606;-64
2021/12/06 03:06:23;;;;;;;65.13;58.07;;;4.80;99.90;;;;;;4389903;32;20539;-63
2021/12/06 03:08:55;;;;;;;65.57;58.70;;;4.90;99.90;;;;;;4379188;32;20271;-63
2021/12/06 03:11:27;;;;;;;71.77;62.80;;;4.90;99.90;;;;;;4391965;32;20194;-63
2021/12/06 03:13:55;;;;;;;66.13;58.80;;;4.90;99.90;;;;;;4392370;32;20176;-64
2021/12/06 03:16:22;;;;;;;65.20;58.20;;;5.00;99.90;;;;;;4388298;32;20445;-63
2021/12/06 03:18:51;;;;;;;62.47;55.17;;;5.00;99.90;;;;;;4390260;32;20532;-62
2021/12/06 03:21:19;;;;;;;62.40;56.07;;;5.00;99.90;;;;;;4384387;32;20176;-62
2021/12/06 03:23:46;;;;;;;60.70;53.63;;;5.00;99.90;;;;;;4384876;32;20235;-61
2021/12/06 03:26:14;;;;;;;60.97;54.30;;;5.00;99.90;;;;;;4380334;32;20224;-63
2021/12/06 03:28:44;;;;;;;60.93;52.77;;;5.00;99.90;;;;;;4390107;32;20156;-63
2021/12/06 03:31:11;;;;;;;57.53;51.30;;;5.00;99.90;;;;;;4389965;32;20179;-63
2021/12/06 03:33:41;;;;;;;62.00;53.53;;;5.00;99.90;;;;;;4392320;32;20220;-63
2021/12/06 03:36:10;;;;;;;57.00;50.77;;;5.00;99.90;;;;;;4390636;32;20156;-65
2021/12/06 03:38:38;;;;;;;57.33;49.23;;;5.00;99.90;;;;;;4392158;32;20545;-65
2021/12/06 03:41:07;;;;;;;61.83;51.80;;;5.00;99.90;;;;;;4386823;32;20208;-65
2021/12/06 03:43:35;;;;;;;63.13;52.40;;;5.10;99.90;;;;;;4385138;32;20531;-63
2021/12/06 03:46:03;;;;;;;55.33;49.50;;;5.10;99.90;;;;;;4379509;32;20554;-62
2021/12/06 03:48:31;;;;;;;56.50;50.97;;;5.10;99.90;;;;;;4388364;32;20223;-63
2021/12/06 03:50:59;;;;;;;60.33;54.23;;;5.10;99.90;;;;;;4391509;32;20524;-62
2021/12/06 03:53:26;;;;;;;60.23;51.87;;;5.10;99.90;;;;;;4390215;32;20219;-63
2021/12/06 03:55:53;;;;;;;66.10;50.83;;;5.10;99.90;;;;;;4390326;32;20175;-63
2021/12/06 03:58:20;;;;;;;60.63;53.33;;;5.20;99.90;;;;;;4390364;32;20180;-63
2021/12/06 04:00:47;;;;;;;63.57;52.73;;;5.20;99.90;;;;;;4387412;32;20214;-63
2021/12/06 04:03:16;;;;;;;65.70;53.90;;;5.20;99.90;;;;;;4385594;32;20216;-63
2021/12/06 04:05:43;;;;;;;61.47;54.83;;;5.20;99.90;;;;;;4389605;32;20212;-63
2021/12/06 04:08:10;;;;;;;67.17;56.40;;;5.20;99.90;;;;;;4384240;32;20213;-63
2021/12/06 04:10:37;;;;;;;65.63;55.90;;;5.20;99.90;;;;;;4378894;32;20199;-61
2021/12/06 04:13:04;;;;;;;66.83;55.33;;;5.20;99.90;;;;;;4387084;32;20221;-63
2021/12/06 04:15:31;;;;;;;64.03;54.77;;;5.10;99.90;;;;;;4382860;32;20204;-62
2021/12/06 04:17:59;;;;;;;66.57;53.77;;;5.20;99.90;;;;;;4389835;32;20156;-61
2021/12/06 04:20:28;;;;;;;69.03;58.07;;;5.10;99.90;;;;;;4390166;32;20557;-62
2021/12/06 04:22:55;;;;;;;61.03;52.97;;;5.10;99.90;;;;;;4390296;32;20208;-62
2021/12/06 04:25:22;;;;;;;65.00;57.87;;;5.10;99.90;;;;;;4390388;32;20207;-64
2021/12/06 04:27:54;;;;;;;65.47;51.03;;;5.10;99.90;;;;;;4392091;32;20203;-63
2021/12/06 04:30:23;;;;;;;72.20;56.63;;;5.10;99.90;;;;;;4391135;32;20211;-63
2021/12/06 04:32:50;;;;;;;70.03;52.67;;;5.10;99.90;;;;;;4381576;32;20572;-61
2021/12/06 04:35:17;;;;;;;64.73;57.17;;;5.00;99.90;;;;;;4393277;32;20192;-61
2021/12/06 04:37:45;;;;;;;62.17;55.47;;;4.90;99.90;;;;;;4394829;32;20216;-63
2021/12/06 04:40:13;;;;;;;59.27;51.27;;;4.90;99.90;;;;;;4381507;32;20212;-64
2021/12/06 04:42:40;;;;;;;67.77;56.30;;;5.00;99.90;;;;;;4393125;32;20190;-62
2021/12/06 04:45:08;;;;;;;65.60;54.03;;;5.00;99.90;;;;;;4392800;32;20203;-63
2021/12/06 04:47:36;;;;;;;61.07;52.23;;;5.00;99.90;;;;;;4393662;32;20179;-64
2021/12/06 04:50:04;;;;;;;67.50;55.73;;;4.90;99.90;;;;;;4381993;32;20156;-63
2021/12/06 04:52:31;;;;;;;61.70;54.77;;;4.90;99.90;;;;;;4390552;32;20187;-62
2021/12/06 04:55:01;;;;;;;69.93;57.20;;;4.90;99.90;;;;;;4382507;32;20536;-63
2021/12/06 04:57:31;;;;;;;66.67;55.57;;;4.90;99.90;;;;;;4392538;32;20216;-63
2021/12/06 05:00:05;;;;;;;67.30;55.87;;;4.90;99.90;;;;;;4392104;32;20230;-64
2021/12/06 05:02:35;;;;;;;69.87;57.00;;;4.90;99.90;;;;;;4380054;32;20171;-64
2021/12/06 05:05:08;;;;;;;62.33;54.57;;;5.00;99.90;;;;;;4392590;32;20194;-64
2021/12/06 05:07:39;;;;;;;76.57;58.03;;;5.00;99.90;;;;;;4384143;32;20176;-64
2021/12/06 05:10:10;;;;;;;71.77;55.30;;;5.00;99.90;;;;;;4390626;32;20152;-62
2021/12/06 05:12:37;;;;;;;67.13;55.07;;;4.90;99.90;;;;;;4384557;32;20237;-62
2021/12/06 05:15:05;;;;;;;73.30;57.27;;;4.90;99.90;;;;;;4391959;32;20170;-64
2021/12/06 05:17:34;;;;;;;65.53;58.03;;;4.80;99.90;;;;;;4392349;32;20220;-64
2021/12/06 05:20:01;;;;;;;68.80;60.63;;;4.80;99.90;;;;;;4392336;32;20219;-64
2021/12/06 05:22:29;;;;;;;67.10;57.03;;;4.90;99.90;;;;;;4380337;32;20533;-62
2021/12/06 05:24:56;;;;;;;68.47;55.50;;;4.90;99.90;;;;;;4388289;32;20160;-62
2021/12/06 05:27:28;;;;;;;69.27;59.97;;;4.90;99.90;;;;;;4385129;32;20198;-62
2021/12/06 05:29:59;;;;;;;78.03;57.53;;;5.00;99.90;;;;;;4392158;32;20187;-64
2021/12/06 05:32:30;;;;;;;72.47;54.63;;;5.00;99.90;;;;;;4390234;32;20152;-62
2021/12/06 05:35:03;;;;;;;71.77;57.00;;;5.00;99.90;;;;;;4392256;32;20160;-64
2021/12/06 05:37:31;;;;;;;68.37;54.97;;;5.00;99.90;;;;;;4384776;32;20580;-62
2021/12/06 05:39:58;;;;;;;68.43;57.43;;;5.00;99.90;;;;;;4389149;32;20210;-64
2021/12/06 05:42:27;;;;;;;73.10;53.50;;;5.00;99.90;;;;;;4392405;32;20232;-62
2021/12/06 05:44:54;;;;;;;71.47;55.97;;;5.00;99.90;;;;;;4382653;32;20160;-62
2021/12/06 05:47:21;;;;;;;73.50;55.97;;;4.90;99.90;;;;;;4387627;32;20233;-63
2021/12/06 05:49:48;;;;;;;69.80;54.97;;;5.00;99.90;;;;;;4392695;32;20592;-62
2021/12/06 05:52:14;;;;;;;65.50;56.27;;;5.00;99.90;;;;;;4391961;32;20268;-63
2021/12/06 05:54:41;;;;;;;71.13;57.67;;;5.00;99.90;;;;;;4389888;32;20618;-63
2021/12/06 05:57:10;;;;;;;74.27;57.17;;;5.00;99.90;;;;;;4392420;32;20188;-64
2021/12/06 05:59:40;;;;;;;67.30;57.53;;;5.00;99.90;;;;;;4383697;32;20164;-63
2021/12/06 06:02:07;;;;;;;70.23;59.80;;;5.00;99.90;;;;;;4389437;32;20208;-63
2021/12/06 06:04:34;;;;;;;70.40;61.97;;;5.00;99.90;;;;;;4383239;32;20182;-63
2021/12/06 06:07:01;;;;;;;73.17;61.17;;;5.00;99.90;;;;;;4393381;32;20499;-64
2021/12/06 06:09:28;;;;;;;73.27;57.27;;;5.00;99.90;;;;;;4391666;32;20159;-63
2021/12/06 06:11:55;;;;;;;66.47;57.70;;;5.00;99.90;;;;;;4391676;32;20216;-63
2021/12/06 06:14:22;;;;;;;70.90;63.57;;;5.00;99.90;;;;;;4388990;32;20212;-63
2021/12/06 06:16:52;;;;;;;69.67;57.80;;;5.00;99.90;;;;;;4390298;32;20159;-62
2021/12/06 06:19:25;;;;;;;71.50;61.23;;;5.00;99.90;;;;;;4390101;32;22524;-63
2021/12/06 06:21:54;;;;;;;73.47;64.40;;;5.00;99.90;;;;;;4387159;32;20215;-62
2021/12/06 06:24:21;;;;;;;72.40;62.27;;;5.00;99.90;;;;;;4394082;32;20215;-62
2021/12/06 06:26:48;;;;;;;71.87;63.00;;;5.00;99.90;;;;;;4392063;32;20182;-63
2021/12/06 06:29:15;;;;;;;71.77;62.10;;;5.00;99.90;;;;;;4391206;32;20184;-63
2021/12/06 06:31:42;;;;;;;75.33;64.50;;;4.90;99.90;;;;;;4391363;32;20168;-62
2021/12/06 06:34:12;;;;;;;70.10;59.83;;;4.90;99.90;;;;;;4390857;32;20874;-62
2021/12/06 06:36:39;;;;;;;74.80;61.73;;;5.00;99.90;;;;;;4389575;32;20216;-64
2021/12/06 06:39:09;;;;;;;72.23;59.40;;;4.90;99.90;;;;;;4390986;32;20493;-63
2021/12/06 06:41:36;;;;;;;71.17;62.50;;;5.00;99.90;;;;;;4390767;32;20182;-62
2021/12/06 06:44:04;;;;;;;74.63;63.50;;;5.00;99.90;;;;;;4390739;32;20194;-63
2021/12/06 06:46:32;;;;;;;72.03;63.47;;;5.00;99.90;;;;;;4390341;32;20216;-63
2021/12/06 06:48:59;;;;;;;76.73;65.00;;;5.00;99.90;;;;;;4389765;32;20187;-63
2021/12/06 06:51:28;;;;;;;76.97;67.33;;;5.00;99.90;;;;;;4391808;32;20160;-64
2021/12/06 06:53:55;;;;;;;70.10;61.57;;;5.00;99.90;;;;;;4389864;32;20172;-62
2021/12/06 06:56:22;;;;;;;72.63;60.03;;;5.00;99.90;;;;;;4391054;32;20548;-64
2021/12/06 06:58:51;;;;;;;71.43;60.47;;;5.00;99.90;;;;;;4389286;32;20207;-62
2021/12/06 07:01:18;;;;;;;74.13;65.27;;;5.00;99.90;;;;;;4388837;32;20553;-62
2021/12/06 07:03:45;;;;;;;72.23;62.93;;;5.00;99.90;;;;;;4390392;32;20202;-64
2021/12/06 07:06:12;;;;;;;74.37;64.20;;;5.00;99.90;;;;;;4392641;32;20168;-63
2021/12/06 07:08:42;;;;;;;75.07;61.60;;;5.00;99.90;;;;;;4389437;32;20218;-63
2021/12/06 07:11:09;;;;;;;69.93;62.63;;;5.00;99.90;;;;;;4389592;32;20285;-63
2021/12/06 07:13:38;;;;;;;76.80;62.83;;;5.00;99.90;;;;;;4390061;32;20152;-62
2021/12/06 07:16:06;;;;;;;76.33;67.80;;;5.10;99.90;;;;;;4388830;32;20583;-62
2021/12/06 07:18:33;;;;;;;75.47;67.47;;;5.10;99.90;;;;;;4389045;32;20179;-62
2021/12/06 07:21:00;;;;;;;78.07;68.13;;;5.10;99.90;;;;;;4390150;32;20234;-64
2021/12/06 07:23:27;;;;;;;76.87;68.23;;;5.00;99.90;;;;;;4389911;32;20190;-62
2021/12/06 07:25:55;;;;;;;71.33;63.50;;;5.10;99.90;;;;;;4387059;32;20215;-63
2021/12/06 07:28:22;;;;;;;71.20;63.23;;;5.10;99.90;;;;;;4389106;32;20247;-64
2021/12/06 07:30:49;;;;;;;78.80;63.97;;;5.10;99.90;;;;;;4388560;32;20211;-63
2021/12/06 07:33:16;;;;;;;72.93;65.00;;;5.00;99.90;;;;;;4389841;32;20163;-62
2021/12/06 07:35:43;;;;;;;72.83;65.20;;;5.00;99.90;;;;;;4391409;32;20182;-64
2021/12/06 07:38:10;;;;;;;67.63;60.27;;;5.00;99.90;;;;;;4391350;32;20208;-62
2021/12/06 07:40:37;;;;;;;69.17;61.93;;;5.00;99.90;;;;;;4392004;32;20164;-62
2021/12/06 07:43:06;;;;;;;73.40;65.07;;;5.00;99.90;;;;;;4391539;32;20151;-63
2021/12/06 07:45:33;;;;;;;76.30;67.50;;;5.00;99.90;;;;;;4389809;32;20175;-63
2021/12/06 07:47:59;;;;;;;73.97;65.70;;;5.00;99.90;;;;;;4391703;32;20270;-63
2021/12/06 07:50:26;;;;;;;74.43;66.37;;;5.00;99.90;;;;;;4389421;32;20227;-62
2021/12/06 07:52:56;;;;;;;71.37;61.77;;;5.10;99.90;;;;;;4392715;32;20187;-62
2021/12/06 07:55:26;;;;;;;75.03;62.93;;;5.00;99.90;;;;;;4391671;32;20182;-63
2021/12/06 07:57:56;;;;;;;71.67;64.13;;;5.00;99.90;;;;;;4388726;32;20164;-61
2021/12/06 08:00:25;;;;;;;71.93;62.40;;;5.20;99.90;;;;;;4390342;32;20223;-63
2021/12/06 08:02:53;;;;;;;68.47;59.73;;;5.10;99.90;;;;;;4389118;32;20204;-63
2021/12/06 08:05:33;;;;;;;73.40;63.60;;;5.10;99.90;;;;;;4390577;32;20184;-63
2021/12/06 08:08:03;;;;;;;79.77;66.50;;;5.10;99.90;;;;;;4390317;32;20676;-62
2021/12/06 08:10:31;;;;;;;70.27;62.00;;;5.10;99.90;;;;;;4390209;32;20184;-63
2021/12/06 08:12:58;;;;;;;79.63;70.73;;;5.10;99.90;;;;;;4391821;32;20180;-62
2021/12/06 08:15:27;;;;;;;73.87;62.73;;;5.10;99.90;;;;;;4394195;32;20179;-63
2021/12/06 08:17:54;;;;;;;80.50;69.03;;;5.10;99.90;;;;;;4388803;32;20155;-62
2021/12/06 08:20:21;;;;;;;81.60;68.60;;;5.10;99.90;;;;;;4391037;32;20475;-62
2021/12/06 08:22:48;;;;;;;83.57;70.17;;;5.00;99.90;;;;;;4390095;32;20219;-62
2021/12/06 08:25:16;;;;;;;78.17;69.57;;;5.00;99.90;;;;;;4389665;32;20701;-62
2021/12/06 08:27:44;;;;;;;82.40;71.60;;;5.00;99.90;;;;;;4391736;32;20686;-62
2021/12/06 08:30:13;;;;;;;83.97;72.70;;;5.00;99.90;;;;;;4383427;32;20188;-61
2021/12/06 08:32:41;;;;;;;89.20;70.97;;;5.00;99.90;;;;;;4389830;32;20164;-63
2021/12/06 08:35:09;;;;;;;82.50;71.10;;;5.00;99.90;;;;;;4389319;32;20243;-62
2021/12/06 08:37:36;;;;;;;80.27;70.70;;;5.00;99.90;;;;;;4388852;32;20174;-63
2021/12/06 08:40:05;;;;;;;82.70;73.90;;;4.90;99.90;;;;;;4391301;32;20172;-62
2021/12/06 08:42:32;;;;;;;82.10;70.63;;;4.90;99.90;;;;;;4391202;32;20157;-63
2021/12/06 08:44:59;;;;;;;87.30;70.47;;;4.90;99.90;;;;;;4388946;32;20226;-63
2021/12/06 08:47:26;;;;;;;78.93;69.70;;;5.00;99.90;;;;;;4391667;32;20175;-63
2021/12/06 08:49:55;;;;;;;82.83;73.57;;;5.00;99.90;;;;;;4385754;32;20164;-61
2021/12/06 08:52:22;;;;;;;78.70;70.47;;;5.00;99.90;;;;;;4389225;32;20165;-62
2021/12/06 08:54:49;;;;;;;76.77;65.70;;;5.10;99.90;;;;;;4389960;32;20264;-62
2021/12/06 08:57:16;;;;;;;74.87;66.87;;;5.10;99.90;;;;;;4388716;32;20187;-63
2021/12/06 08:59:43;;;;;;;76.40;68.33;;;5.10;99.90;;;;;;4390508;32;20523;-62
2021/12/06 09:02:10;;;;;;;82.50;73.77;;;5.00;99.90;;;;;;4393058;32;20507;-64
2021/12/06 09:04:39;;;;;;;76.13;67.47;;;5.00;99.90;;;;;;4392801;32;20160;-63
2021/12/06 09:07:13;;;;;;;76.50;67.50;;;5.00;99.90;;;;;;4400595;32;20290;-63
2021/12/06 09:09:45;;;;;;;83.30;74.67;;;5.00;99.90;;;;;;4391546;32;20206;-62
2021/12/06 09:12:17;;;;;;;82.43;71.83;;;5.00;99.90;;;;;;4398123;32;20237;-62
2021/12/06 09:14:44;;;;;;;93.13;73.00;;;5.00;99.90;;;;;;4391427;32;20191;-62
2021/12/06 09:17:12;;;;;;;90.07;77.83;;;5.00;99.90;;;;;;4398543;32;21956;-62
2021/12/06 09:19:39;;;;;;;90.17;79.23;;;5.00;99.90;;;;;;4394703;32;20179;-62
2021/12/06 09:22:07;;;;;;;82.27;73.07;;;5.00;99.90;;;;;;4395390;32;20160;-61
2021/12/06 09:24:34;;;;;;;80.83;70.10;;;5.10;99.90;;;;;;4392662;32;20173;-62
2021/12/06 09:27:02;;;;;;;95.23;71.30;;;5.10;99.90;;;;;;4390416;32;20155;-62
2021/12/06 09:29:32;;;;;;;90.60;71.97;;;5.10;99.90;;;;;;4391544;32;20188;-64
2021/12/06 09:32:00;;;;;;;89.80;70.90;;;5.10;99.90;;;;;;4394407;32;20219;-61
2021/12/06 09:34:28;;;;;;;87.80;73.27;;;5.20;99.90;;;;;;4392417;32;20526;-63
2021/12/06 09:36:55;;;;;;;89.53;72.67;;;5.20;99.90;;;;;;4403365;32;20168;-61
2021/12/06 09:39:23;;;;;;;89.83;73.80;;;5.20;99.90;;;;;;4397043;32;20622;-61
2021/12/06 09:41:52;;;;;;;91.03;70.97;;;5.30;99.90;;;;;;4396078;32;20521;-60
2021/12/06 09:44:19;;;;;;;90.77;68.20;;;5.30;99.90;;;;;;4398427;32;20187;-63
2021/12/06 09:46:47;;;;;;;81.90;69.43;;;5.30;99.90;;;;;;4397011;32;20482;-64
2021/12/06 09:49:18;;;;;;;88.47;72.50;;;5.30;99.90;;;;;;4392358;32;20163;-63
2021/12/06 09:51:50;;;;;;;82.27;69.80;;;5.30;99.90;;;;;;4391917;32;20160;-64
2021/12/06 09:54:19;;;;;;;87.27;72.47;;;5.20;99.90;;;;;;4399415;32;20186;-62
2021/12/06 09:56:48;;;;;;;86.17;72.10;;;5.30;99.90;;;;;;4398214;32;20160;-62
2021/12/06 09:59:18;;;;;;;85.03;68.07;;;5.20;99.90;;;;;;4393275;32;20187;-62
2021/12/06 10:01:50;;;;;;;90.40;76.07;;;5.20;99.90;;;;;;4394357;32;20166;-64
2021/12/06 10:04:18;;;;;;;89.83;75.63;;;5.20;99.90;;;;;;4385530;32;20202;-64
2021/12/06 10:06:47;;;;;;;90.77;75.80;;;5.20;99.90;;;;;;4399960;32;20178;-63
2021/12/06 10:09:15;;;;;;;84.40;69.90;;;5.30;99.90;;;;;;4395881;32;20245;-64
2021/12/06 10:25:07;;;;;;;100.60;70.80;;;5.20;99.90;;;;;;4329230;32;2921394;-68
2021/12/06 10:27:34;;;;;;;89.07;69.17;;;5.50;99.90;;;;;;4419065;32;20255;-66
2021/12/06 10:30:05;;;;;;;92.60;67.90;;;5.40;99.90;;;;;;4411846;32;20175;-65
2021/12/06 10:32:34;;;;;;;100.43;69.20;;;5.40;99.90;;;;;;4412838;32;20210;-65
2021/12/06 10:35:05;;;;;;;88.73;72.13;;;5.40;99.90;;;;;;4413321;32;20214;-64
2021/12/06 10:37:37;;;;;;;92.90;71.77;;;5.40;99.90;;;;;;4407716;32;20583;-64
2021/12/06 10:40:11;;;;;;;96.63;72.57;;;5.30;99.90;;;;;;4414474;32;20763;-65
2021/12/06 10:42:40;;;;;;;100.30;77.90;;;5.30;99.90;;;;;;4416727;32;20155;-65
2021/12/06 10:45:10;;;;;;;97.70;73.70;;;5.30;99.90;;;;;;4408288;32;20221;-63
2021/12/06 10:47:38;;;;;;;101.57;74.90;;;5.20;99.90;;;;;;4403480;32;20163;-64
2021/12/06 10:50:12;;;;;;;97.80;76.33;;;5.30;99.90;;;;;;4405558;32;20159;-64
2021/12/06 10:52:50;;;;;;;100.30;75.87;;;5.30;99.90;;;;;;4412146;32;20155;-63
2021/12/06 10:55:20;;;;;;;96.20;77.73;;;5.30;99.90;;;;;;4411895;32;20174;-63
2021/12/06 10:57:52;;;;;;;87.10;71.17;;;5.30;99.90;;;;;;4405177;32;20498;-67
2021/12/06 11:00:38;;;;;;;88.87;70.30;;;5.30;99.90;;;;;;4413404;32;20179;-65
2021/12/06 11:03:05;;;;;;;87.13;72.10;;;5.30;99.90;;;;;;4416191;32;20187;-66
2021/12/06 11:05:35;;;;;;;82.97;69.47;;;5.40;99.90;;;;;;4407753;32;20700;-68
2021/12/06 11:08:10;;;;;;;79.13;70.53;;;5.40;99.90;;;;;;4405342;32;20248;-66
2021/12/06 11:10:45;;;;;;;79.43;71.23;;;5.40;99.90;;;;;;4404882;32;20234;-66
2021/12/06 11:13:15;;;;;;;78.00;65.53;;;5.40;99.90;;;;;;4405654;32;20191;-67
2021/12/06 11:15:56;;;;;;;83.10;67.73;;;5.40;99.90;;;;;;4405325;32;20222;-67
2021/12/06 11:18:46;;;;;;;85.03;74.40;;;5.40;99.90;;;;;;4404794;32;20234;-67
2021/12/06 11:21:21;;;;;;;84.73;70.73;;;5.40;99.90;;;;;;4376304;32;20172;-63
2021/12/06 11:24:06;;;;;;;88.07;71.23;;;5.30;99.90;;;;;;4374909;32;20227;-66
2021/12/06 11:26:36;;;;;;;76.70;66.77;;;5.20;99.90;;;;;;4374850;32;20214;-64
2021/12/06 11:29:19;;;;;;;84.03;69.53;;;5.20;99.90;;;;;;4372855;32;20235;-64
2021/12/06 11:31:56;;;;;;;85.17;72.17;;;5.30;99.90;;;;;;4367349;32;20205;-65
2021/12/06 11:34:30;;;;;;;85.00;70.97;;;5.30;99.90;;;;;;4375351;32;20214;-64
2021/12/06 11:36:57;;;;;;;87.53;76.37;;;5.20;99.90;;;;;;4373462;32;20227;-67
2021/12/06 11:39:25;;;;;;;85.80;70.33;;;5.30;99.90;;;;;;4375216;32;20211;-66
2021/12/06 11:41:55;;;;;;;78.87;70.23;;;5.30;99.90;;;;;;4374960;32;20270;-65
2021/12/06 11:44:25;;;;;;;78.23;68.30;;;5.40;99.90;;;;;;4373337;32;20187;-65
2021/12/06 11:47:03;;;;;;;74.13;63.77;;;5.60;99.90;;;;;;4373618;32;20545;-66
2021/12/06 11:49:34;;;;;;;74.87;67.27;;;5.70;99.90;;;;;;4376789;32;20227;-64
2021/12/06 11:52:03;;;;;;;76.27;68.80;;;5.80;99.90;;;;;;4375847;32;20224;-65
2021/12/06 11:54:41;;;;;;;72.13;64.27;;;5.60;99.90;;;;;;4372079;32;20600;-64
2021/12/06 11:57:15;;;;;;;72.10;63.67;;;5.60;99.90;;;;;;4374981;32;20168;-64
2021/12/06 11:59:48;;;;;;;79.07;65.47;;;5.60;99.90;;;;;;4395450;32;20598;-65
2021/12/06 12:02:15;;;;;;;66.67;59.10;;;5.70;99.90;;;;;;4397389;32;20595;-63
2021/12/06 12:04:42;;;;;;;72.93;65.80;;;5.90;99.90;;;;;;4400493;32;20802;-65
2021/12/06 12:07:09;;;;;;;63.97;57.37;;;5.90;99.90;;;;;;4396109;32;20159;-63
2021/12/06 12:09:37;;;;;;;66.43;58.30;;;6.00;99.90;;;;;;4404184;32;20512;-66
2021/12/06 12:12:08;;;;;;;70.53;63.20;;;6.00;99.90;;;;;;4396249;32;20190;-64
2021/12/06 12:14:40;;;;;;;64.83;58.63;;;5.90;99.90;;;;;;4393234;32;20485;-65
2021/12/06 12:17:12;;;;;;;69.57;62.60;;;5.90;99.90;;;;;;4394627;32;20222;-66
2021/12/06 12:19:40;;;;;;;67.10;61.07;;;5.90;99.90;;;;;;4393980;32;20216;-66
2021/12/06 12:22:08;;;;;;;69.73;63.20;;;5.90;99.90;;;;;;4393600;32;20168;-64
2021/12/06 12:24:37;;;;;;;68.30;62.20;;;5.80;99.90;;;;;;4397620;32;20178;-66
2021/12/06 12:27:15;;;;;;;69.33;63.33;;;5.80;99.90;;;;;;4399029;32;20219;-65
2021/12/06 12:29:44;;;;;;;62.47;56.43;;;5.80;99.90;;;;;;4392773;32;20212;-64
2021/12/06 12:32:11;;;;;;;62.47;56.87;;;5.90;99.90;;;;;;4396719;32;20190;-66
2021/12/06 12:34:42;;;;;;;58.87;53.73;;;5.90;99.90;;;;;;4398840;32;20267;-65
2021/12/06 12:37:12;;;;;;;59.33;53.77;;;5.90;99.90;;;;;;4397990;32;20219;-65
2021/12/06 12:39:40;;;;;;;57.40;51.47;;;6.00;99.90;;;;;;4404780;32;20200;-63
2021/12/06 12:42:09;;;;;;;54.23;49.40;;;6.00;99.90;;;;;;4398978;32;20178;-65
2021/12/06 12:44:47;;;;;;;52.70;47.23;;;6.00;99.90;;;;;;4398129;32;20164;-63
2021/12/06 12:47:17;;;;;;;52.53;47.23;;;5.90;99.90;;;;;;4403023;32;20214;-64
2021/12/06 12:49:47;;;;;;;56.20;50.63;;;5.80;99.90;;;;;;4394116;32;20217;-65
2021/12/06 12:52:15;;;;;;;58.63;52.83;;;5.70;99.90;;;;;;4400014;32;20195;-64
2021/12/06 12:54:45;;;;;;;55.40;50.23;;;5.60;99.90;;;;;;4400271;32;20171;-65
2021/12/06 12:57:14;;;;;;;56.17;50.93;;;5.50;99.90;;;;;;4400960;32;20152;-64
2021/12/06 12:59:48;;;;;;;56.57;50.97;;;5.50;99.90;;;;;;4401968;32;20183;-64
2021/12/06 13:02:30;;;;;;;57.33;51.93;;;5.40;99.90;;;;;;4394627;32;20172;-65
2021/12/06 13:05:21;;;;;;;62.40;56.90;;;5.40;99.90;;;;;;4397872;32;20177;-64